sensor_id;sensor_type;location;lat;lon;timestamp;temperature;humidity
57753;DHT22;43583;53.132;6.574;2024-03-02T00:00:14;7.20;99.90
57753;DHT22;43583;53.132;6.574;2024-03-02T00:02:44;7.10;99.90
57753;DHT22;43583;53.132;6.574;2024-03-02T00:05:12;7.10;99.90
57753;DHT22;43583;53.132;6.574;2024-03-02T00:07:41;7.10;99.90
57753;DHT22;43583;53.132;6.574;2024-03-02T00:10:12;7.10;99.90
57753;DHT22;43583;53.132;6.574;2024-03-02T00:12:40;7.10;99.90
57753;DHT22;43583;53.132;6.574;2024-03-02T00:17:54;7.10;99.90
57753;DHT22;43583;53.132;6.574;2024-03-02T00:20:22;7.20;99.90
57753;DHT22;43583;53.132;6.574;2024-03-02T00:22:49;7.20;99.90
57753;DHT22;43583;53.132;6.574;2024-03-02T00:25:16;7.20;99.90
57753;DHT22;43583;53.132;6.574;2024-03-02T00:27:42;7.20;99.90
57753;DHT22;43583;53.132;6.574;2024-03-02T00:31:13;7.20;99.90
57753;DHT22;43583;53.132;6.574;2024-03-02T00:33:14;7.20;99.90
57753;DHT22;43583;53.132;6.574;2024-03-02T00:35:39;7.20;99.90
57753;DHT22;43583;53.132;6.574;2024-03-02T00:38:05;7.20;99.90
57753;DHT22;43583;53.132;6.574;2024-03-02T00:40:32;7.20;99.90
57753;DHT22;43583;53.132;6.574;2024-03-02T00:42:58;7.30;99.90
57753;DHT22;43583;53.132;6.574;2024-03-02T00:45:25;7.30;99.90
57753;DHT22;43583;53.132;6.574;2024-03-02T00:47:51;7.40;99.90
57753;DHT22;43583;53.132;6.574;2024-03-02T00:50:18;7.50;99.90
57753;DHT22;43583;53.132;6.574;2024-03-02T00:52:44;7.50;99.90
57753;DHT22;43583;53.132;6.574;2024-03-02T00:55:10;7.60;99.90
57753;DHT22;43583;53.132;6.574;2024-03-02T00:57:36;7.60;99.90
57753;DHT22;43583;53.132;6.574;2024-03-02T01:00:01;7.60;99.90
57753;DHT22;43583;53.132;6.574;2024-03-02T01:02:28;7.60;99.90
57753;DHT22;43583;53.132;6.574;2024-03-02T01:04:54;7.60;99.90
57753;DHT22;43583;53.132;6.574;2024-03-02T01:07:20;7.50;99.90
57753;DHT22;43583;53.132;6.574;2024-03-02T01:09:46;7.60;99.90
57753;DHT22;43583;53.132;6.574;2024-03-02T01:12:12;7.50;99.90
57753;DHT22;43583;53.132;6.574;2024-03-02T01:14:37;7.60;99.90
57753;DHT22;43583;53.132;6.574;2024-03-02T01:17:03;7.60;99.90
57753;DHT22;43583;53.132;6.574;2024-03-02T01:19:30;7.50;99.90
57753;DHT22;43583;53.132;6.574;2024-03-02T01:21:56;7.60;99.90
57753;DHT22;43583;53.132;6.574;2024-03-02T01:24:22;7.50;99.90
57753;DHT22;43583;53.132;6.574;2024-03-02T01:26:47;7.50;99.90
57753;DHT22;43583;53.132;6.574;2024-03-02T01:29:13;7.50;99.90
57753;DHT22;43583;53.132;6.574;2024-03-02T01:31:39;7.50;99.90
57753;DHT22;43583;53.132;6.574;2024-03-02T01:34:07;7.50;99.90
57753;DHT22;43583;53.132;6.574;2024-03-02T01:36:33;7.60;99.90
57753;DHT22;43583;53.132;6.574;2024-03-02T01:38:59;7.60;99.90
57753;DHT22;43583;53.132;6.574;2024-03-02T01:41:25;7.60;99.90
57753;DHT22;43583;53.132;6.574;2024-03-02T01:43:50;7.70;99.90
57753;DHT22;43583;53.132;6.574;2024-03-02T01:46:16;7.70;99.90
57753;DHT22;43583;53.132;6.574;2024-03-02T01:48:42;7.70;99.90
57753;DHT22;43583;53.132;6.574;2024-03-02T01:51:08;7.70;99.90
57753;DHT22;43583;53.132;6.574;2024-03-02T01:53:34;7.70;99.90
57753;DHT22;43583;53.132;6.574;2024-03-02T01:56:00;7.80;99.90
57753;DHT22;43583;53.132;6.574;2024-03-02T01:58:27;7.80;99.90
57753;DHT22;43583;53.132;6.574;2024-03-02T02:00:53;7.80;99.90
57753;DHT22;43583;53.132;6.574;2024-03-02T02:03:18;7.80;99.90
57753;DHT22;43583;53.132;6.574;2024-03-02T02:05:44;7.80;99.90
57753;DHT22;43583;53.132;6.574;2024-03-02T02:08:11;7.80;99.90
57753;DHT22;43583;53.132;6.574;2024-03-02T02:10:37;7.80;99.90
57753;DHT22;43583;53.132;6.574;2024-03-02T02:13:02;7.80;99.90
57753;DHT22;43583;53.132;6.574;2024-03-02T02:15:31;7.80;99.90
57753;DHT22;43583;53.132;6.574;2024-03-02T02:17:58;7.80;99.90
57753;DHT22;43583;53.132;6.574;2024-03-02T02:20:25;7.90;99.90
57753;DHT22;43583;53.132;6.574;2024-03-02T02:23:03;8.00;99.90
57753;DHT22;43583;53.132;6.574;2024-03-02T02:25:35;8.00;99.90
57753;DHT22;43583;53.132;6.574;2024-03-02T02:28:01;8.00;99.90
57753;DHT22;43583;53.132;6.574;2024-03-02T02:30:31;8.00;99.90
57753;DHT22;43583;53.132;6.574;2024-03-02T02:32:58;7.90;99.90
57753;DHT22;43583;53.132;6.574;2024-03-02T02:35:24;8.00;99.90
57753;DHT22;43583;53.132;6.574;2024-03-02T02:37:50;8.00;99.90
57753;DHT22;43583;53.132;6.574;2024-03-02T02:40:17;8.00;99.90
57753;DHT22;43583;53.132;6.574;2024-03-02T02:42:44;8.00;99.90
57753;DHT22;43583;53.132;6.574;2024-03-02T02:45:10;8.00;99.90
57753;DHT22;43583;53.132;6.574;2024-03-02T02:47:38;8.00;99.90
57753;DHT22;43583;53.132;6.574;2024-03-02T02:50:06;8.10;99.90
57753;DHT22;43583;53.132;6.574;2024-03-02T02:52:33;8.20;99.90
57753;DHT22;43583;53.132;6.574;2024-03-02T02:55:01;8.20;99.90
57753;DHT22;43583;53.132;6.574;2024-03-02T02:57:28;8.20;99.90
57753;DHT22;43583;53.132;6.574;2024-03-02T02:59:56;8.30;99.90
57753;DHT22;43583;53.132;6.574;2024-03-02T03:02:21;8.30;99.90
57753;DHT22;43583;53.132;6.574;2024-03-02T03:04:47;8.30;99.90
57753;DHT22;43583;53.132;6.574;2024-03-02T03:07:13;8.30;99.90
57753;DHT22;43583;53.132;6.574;2024-03-02T03:09:39;8.30;99.90
57753;DHT22;43583;53.132;6.574;2024-03-02T03:12:05;8.30;99.90
57753;DHT22;43583;53.132;6.574;2024-03-02T03:14:30;8.20;99.90
57753;DHT22;43583;53.132;6.574;2024-03-02T03:16:56;8.20;99.90
57753;DHT22;43583;53.132;6.574;2024-03-02T03:19:21;8.30;99.90
57753;DHT22;43583;53.132;6.574;2024-03-02T03:21:47;8.20;99.90
57753;DHT22;43583;53.132;6.574;2024-03-02T03:24:13;8.20;99.90
57753;DHT22;43583;53.132;6.574;2024-03-02T03:26:38;8.10;99.90
57753;DHT22;43583;53.132;6.574;2024-03-02T03:29:04;8.20;99.90
57753;DHT22;43583;53.132;6.574;2024-03-02T03:31:30;8.10;99.90
57753;DHT22;43583;53.132;6.574;2024-03-02T03:33:57;8.20;99.90
57753;DHT22;43583;53.132;6.574;2024-03-02T03:36:23;8.10;99.90
57753;DHT22;43583;53.132;6.574;2024-03-02T03:38:48;8.10;99.90
57753;DHT22;43583;53.132;6.574;2024-03-02T03:41:14;8.10;99.90
57753;DHT22;43583;53.132;6.574;2024-03-02T03:43:40;8.10;99.90
57753;DHT22;43583;53.132;6.574;2024-03-02T03:46:06;8.10;99.90
57753;DHT22;43583;53.132;6.574;2024-03-02T03:48:32;8.10;99.90
57753;DHT22;43583;53.132;6.574;2024-03-02T03:50:57;8.00;99.90
57753;DHT22;43583;53.132;6.574;2024-03-02T03:53:23;8.00;99.90
57753;DHT22;43583;53.132;6.574;2024-03-02T03:55:49;8.00;99.90
57753;DHT22;43583;53.132;6.574;2024-03-02T03:58:15;8.00;99.90
57753;DHT22;43583;53.132;6.574;2024-03-02T04:00:43;7.90;99.90
57753;DHT22;43583;53.132;6.574;2024-03-02T04:03:08;7.80;99.90
57753;DHT22;43583;53.132;6.574;2024-03-02T04:05:34;7.80;99.90
57753;DHT22;43583;53.132;6.574;2024-03-02T04:07:59;7.80;99.90
57753;DHT22;43583;53.132;6.574;2024-03-02T04:10:26;7.80;99.90
57753;DHT22;43583;53.132;6.574;2024-03-02T04:12:52;7.80;99.90
57753;DHT22;43583;53.132;6.574;2024-03-02T04:15:17;7.80;99.90
57753;DHT22;43583;53.132;6.574;2024-03-02T04:17:44;7.80;99.90
57753;DHT22;43583;53.132;6.574;2024-03-02T04:20:10;7.80;99.90
57753;DHT22;43583;53.132;6.574;2024-03-02T04:22:38;7.80;99.90
57753;DHT22;43583;53.132;6.574;2024-03-02T04:25:03;7.80;99.90
57753;DHT22;43583;53.132;6.574;2024-03-02T04:27:31;7.80;99.90
57753;DHT22;43583;53.132;6.574;2024-03-02T04:29:58;7.90;99.90
57753;DHT22;43583;53.132;6.574;2024-03-02T04:32:27;7.80;99.90
57753;DHT22;43583;53.132;6.574;2024-03-02T04:34:52;7.80;99.90
57753;DHT22;43583;53.132;6.574;2024-03-02T04:37:18;7.90;99.90
57753;DHT22;43583;53.132;6.574;2024-03-02T04:39:44;7.90;99.90
57753;DHT22;43583;53.132;6.574;2024-03-02T04:42:10;7.90;99.90
57753;DHT22;43583;53.132;6.574;2024-03-02T04:44:35;7.90;99.90
57753;DHT22;43583;53.132;6.574;2024-03-02T04:47:03;7.90;99.90
57753;DHT22;43583;53.132;6.574;2024-03-02T04:49:29;7.90;99.90
57753;DHT22;43583;53.132;6.574;2024-03-02T04:51:55;7.90;99.90
57753;DHT22;43583;53.132;6.574;2024-03-02T04:54:22;7.80;99.90
57753;DHT22;43583;53.132;6.574;2024-03-02T04:56:48;7.80;99.90
57753;DHT22;43583;53.132;6.574;2024-03-02T04:59:17;7.70;99.90
57753;DHT22;43583;53.132;6.574;2024-03-02T05:01:46;7.70;99.90
57753;DHT22;43583;53.132;6.574;2024-03-02T05:04:12;7.60;99.90
57753;DHT22;43583;53.132;6.574;2024-03-02T05:06:39;7.60;99.90
57753;DHT22;43583;53.132;6.574;2024-03-02T05:09:08;7.50;99.90
57753;DHT22;43583;53.132;6.574;2024-03-02T05:11:35;7.50;99.90
57753;DHT22;43583;53.132;6.574;2024-03-02T05:14:06;7.60;99.90
57753;DHT22;43583;53.132;6.574;2024-03-02T05:16:36;7.60;99.90
57753;DHT22;43583;53.132;6.574;2024-03-02T05:19:05;7.60;99.90
57753;DHT22;43583;53.132;6.574;2024-03-02T05:21:34;7.60;99.90
57753;DHT22;43583;53.132;6.574;2024-03-02T05:24:00;7.60;99.90
57753;DHT22;43583;53.132;6.574;2024-03-02T05:26:25;7.60;99.90
57753;DHT22;43583;53.132;6.574;2024-03-02T05:28:51;7.60;99.90
57753;DHT22;43583;53.132;6.574;2024-03-02T05:31:17;7.50;99.90
57753;DHT22;43583;53.132;6.574;2024-03-02T05:33:43;7.50;99.90
57753;DHT22;43583;53.132;6.574;2024-03-02T05:36:09;7.50;99.90
57753;DHT22;43583;53.132;6.574;2024-03-02T05:38:35;7.40;99.90
57753;DHT22;43583;53.132;6.574;2024-03-02T05:41:01;7.40;99.90
57753;DHT22;43583;53.132;6.574;2024-03-02T05:43:27;7.40;99.90
57753;DHT22;43583;53.132;6.574;2024-03-02T05:45:52;7.40;99.90
57753;DHT22;43583;53.132;6.574;2024-03-02T05:48:18;7.50;99.90
57753;DHT22;43583;53.132;6.574;2024-03-02T05:50:44;7.50;99.90
57753;DHT22;43583;53.132;6.574;2024-03-02T05:53:09;7.50;99.90
57753;DHT22;43583;53.132;6.574;2024-03-02T05:55:35;7.40;99.90
57753;DHT22;43583;53.132;6.574;2024-03-02T05:58:01;7.50;99.90
57753;DHT22;43583;53.132;6.574;2024-03-02T06:00:33;7.50;99.90
57753;DHT22;43583;53.132;6.574;2024-03-02T06:02:58;7.40;99.90
57753;DHT22;43583;53.132;6.574;2024-03-02T06:05:24;7.40;99.90
57753;DHT22;43583;53.132;6.574;2024-03-02T06:07:50;7.50;99.90
57753;DHT22;43583;53.132;6.574;2024-03-02T06:10:16;7.50;99.90
57753;DHT22;43583;53.132;6.574;2024-03-02T06:12:43;7.50;99.90
57753;DHT22;43583;53.132;6.574;2024-03-02T06:15:09;7.50;99.90
57753;DHT22;43583;53.132;6.574;2024-03-02T06:17:36;7.50;99.90
57753;DHT22;43583;53.132;6.574;2024-03-02T06:20:02;7.50;99.90
57753;DHT22;43583;53.132;6.574;2024-03-02T06:22:28;7.50;99.90
57753;DHT22;43583;53.132;6.574;2024-03-02T06:24:54;7.50;99.90
57753;DHT22;43583;53.132;6.574;2024-03-02T06:27:19;7.50;99.90
57753;DHT22;43583;53.132;6.574;2024-03-02T06:29:45;7.50;99.90
57753;DHT22;43583;53.132;6.574;2024-03-02T06:32:11;7.50;99.90
57753;DHT22;43583;53.132;6.574;2024-03-02T06:34:36;7.40;99.90
57753;DHT22;43583;53.132;6.574;2024-03-02T06:37:02;7.30;99.90
57753;DHT22;43583;53.132;6.574;2024-03-02T06:39:28;7.30;99.90
57753;DHT22;43583;53.132;6.574;2024-03-02T06:41:54;7.30;99.90
57753;DHT22;43583;53.132;6.574;2024-03-02T06:44:19;7.30;99.90
57753;DHT22;43583;53.132;6.574;2024-03-02T06:46:46;7.30;99.90
57753;DHT22;43583;53.132;6.574;2024-03-02T06:49:12;7.30;99.90
57753;DHT22;43583;53.132;6.574;2024-03-02T06:51:38;7.30;99.90
57753;DHT22;43583;53.132;6.574;2024-03-02T06:54:03;7.30;99.90
57753;DHT22;43583;53.132;6.574;2024-03-02T06:56:29;7.30;99.90
57753;DHT22;43583;53.132;6.574;2024-03-02T06:58:56;7.20;99.90
57753;DHT22;43583;53.132;6.574;2024-03-02T07:01:21;7.20;99.90
57753;DHT22;43583;53.132;6.574;2024-03-02T07:03:47;7.20;99.90
57753;DHT22;43583;53.132;6.574;2024-03-02T07:06:13;7.20;99.90
57753;DHT22;43583;53.132;6.574;2024-03-02T07:08:39;7.20;99.90
57753;DHT22;43583;53.132;6.574;2024-03-02T07:11:04;7.20;99.90
57753;DHT22;43583;53.132;6.574;2024-03-02T07:13:30;7.20;99.90
57753;DHT22;43583;53.132;6.574;2024-03-02T07:15:55;7.20;99.90
57753;DHT22;43583;53.132;6.574;2024-03-02T07:18:36;7.20;99.90
57753;DHT22;43583;53.132;6.574;2024-03-02T07:21:10;7.30;99.90
57753;DHT22;43583;53.132;6.574;2024-03-02T07:23:36;7.30;99.90
57753;DHT22;43583;53.132;6.574;2024-03-02T07:26:02;7.40;99.90
57753;DHT22;43583;53.132;6.574;2024-03-02T07:28:29;7.50;99.90
57753;DHT22;43583;53.132;6.574;2024-03-02T07:31:02;7.50;99.90
57753;DHT22;43583;53.132;6.574;2024-03-02T07:33:28;7.60;99.90
57753;DHT22;43583;53.132;6.574;2024-03-02T07:35:54;7.80;99.90
57753;DHT22;43583;53.132;6.574;2024-03-02T07:38:21;7.80;99.90
57753;DHT22;43583;53.132;6.574;2024-03-02T07:40:48;7.80;99.90
57753;DHT22;43583;53.132;6.574;2024-03-02T07:43:17;7.90;99.90
57753;DHT22;43583;53.132;6.574;2024-03-02T07:45:44;7.90;99.90
57753;DHT22;43583;53.132;6.574;2024-03-02T07:48:10;7.90;99.90
57753;DHT22;43583;53.132;6.574;2024-03-02T07:50:36;7.90;99.90
57753;DHT22;43583;53.132;6.574;2024-03-02T07:53:03;7.90;99.90
57753;DHT22;43583;53.132;6.574;2024-03-02T07:55:29;8.00;99.90
57753;DHT22;43583;53.132;6.574;2024-03-02T07:57:56;8.00;99.90
57753;DHT22;43583;53.132;6.574;2024-03-02T08:00:23;8.00;99.90
57753;DHT22;43583;53.132;6.574;2024-03-02T08:02:50;8.00;99.90
57753;DHT22;43583;53.132;6.574;2024-03-02T08:05:16;8.10;99.90
57753;DHT22;43583;53.132;6.574;2024-03-02T08:07:45;8.40;99.90
57753;DHT22;43583;53.132;6.574;2024-03-02T08:10:11;9.50;99.90
57753;DHT22;43583;53.132;6.574;2024-03-02T08:12:37;11.00;99.90
57753;DHT22;43583;53.132;6.574;2024-03-02T08:15:02;12.40;99.90
57753;DHT22;43583;53.132;6.574;2024-03-02T08:17:28;13.50;99.90
57753;DHT22;43583;53.132;6.574;2024-03-02T08:19:54;14.30;99.90
57753;DHT22;43583;53.132;6.574;2024-03-02T08:22:20;15.00;99.90
57753;DHT22;43583;53.132;6.574;2024-03-02T08:24:46;15.60;99.90
57753;DHT22;43583;53.132;6.574;2024-03-02T08:27:12;16.00;99.90
57753;DHT22;43583;53.132;6.574;2024-03-02T08:29:37;16.30;99.90
57753;DHT22;43583;53.132;6.574;2024-03-02T08:32:04;16.40;99.90
57753;DHT22;43583;53.132;6.574;2024-03-02T08:34:30;16.50;99.90
57753;DHT22;43583;53.132;6.574;2024-03-02T08:36:56;16.80;99.90
57753;DHT22;43583;53.132;6.574;2024-03-02T08:39:22;16.70;99.90
57753;DHT22;43583;53.132;6.574;2024-03-02T08:41:48;16.10;99.90
57753;DHT22;43583;53.132;6.574;2024-03-02T08:44:14;15.50;99.90
57753;DHT22;43583;53.132;6.574;2024-03-02T08:46:40;14.80;99.90
57753;DHT22;43583;53.132;6.574;2024-03-02T08:49:06;14.10;99.90
57753;DHT22;43583;53.132;6.574;2024-03-02T08:51:32;13.90;99.90
57753;DHT22;43583;53.132;6.574;2024-03-02T08:53:58;14.50;99.90
57753;DHT22;43583;53.132;6.574;2024-03-02T08:56:24;15.10;99.90
57753;DHT22;43583;53.132;6.574;2024-03-02T08:58:51;15.00;99.90
57753;DHT22;43583;53.132;6.574;2024-03-02T09:01:18;14.50;99.90
57753;DHT22;43583;53.132;6.574;2024-03-02T09:03:47;14.10;99.90
57753;DHT22;43583;53.132;6.574;2024-03-02T09:06:15;13.80;99.90
57753;DHT22;43583;53.132;6.574;2024-03-02T09:08:45;13.80;99.90
57753;DHT22;43583;53.132;6.574;2024-03-02T09:11:11;13.70;99.90
57753;DHT22;43583;53.132;6.574;2024-03-02T09:13:38;13.50;99.90
57753;DHT22;43583;53.132;6.574;2024-03-02T09:16:04;13.50;99.90
57753;DHT22;43583;53.132;6.574;2024-03-02T09:18:30;13.40;99.90
57753;DHT22;43583;53.132;6.574;2024-03-02T09:20:56;13.40;99.90
57753;DHT22;43583;53.132;6.574;2024-03-02T09:23:22;13.90;99.90
57753;DHT22;43583;53.132;6.574;2024-03-02T09:25:47;14.20;99.90
57753;DHT22;43583;53.132;6.574;2024-03-02T09:28:15;14.20;99.90
57753;DHT22;43583;53.132;6.574;2024-03-02T09:30:41;14.00;99.90
57753;DHT22;43583;53.132;6.574;2024-03-02T09:33:07;14.00;99.90
57753;DHT22;43583;53.132;6.574;2024-03-02T09:35:32;14.30;99.90
57753;DHT22;43583;53.132;6.574;2024-03-02T09:37:58;14.80;99.90
57753;DHT22;43583;53.132;6.574;2024-03-02T09:40:24;15.40;99.90
57753;DHT22;43583;53.132;6.574;2024-03-02T09:42:51;15.80;99.90
57753;DHT22;43583;53.132;6.574;2024-03-02T09:45:24;16.40;99.90
57753;DHT22;43583;53.132;6.574;2024-03-02T09:47:50;16.70;99.90
57753;DHT22;43583;53.132;6.574;2024-03-02T09:50:16;16.50;99.90
57753;DHT22;43583;53.132;6.574;2024-03-02T09:52:48;16.20;99.90
57753;DHT22;43583;53.132;6.574;2024-03-02T09:55:15;15.50;99.60
57753;DHT22;43583;53.132;6.574;2024-03-02T09:57:42;14.80;99.90
57753;DHT22;43583;53.132;6.574;2024-03-02T10:00:08;14.40;99.90
57753;DHT22;43583;53.132;6.574;2024-03-02T10:02:34;14.20;99.90
57753;DHT22;43583;53.132;6.574;2024-03-02T10:05:00;14.20;99.90
57753;DHT22;43583;53.132;6.574;2024-03-02T10:07:29;14.00;99.90
57753;DHT22;43583;53.132;6.574;2024-03-02T10:09:55;13.80;99.90
57753;DHT22;43583;53.132;6.574;2024-03-02T10:12:21;13.60;99.90
57753;DHT22;43583;53.132;6.574;2024-03-02T10:14:47;13.30;99.90
57753;DHT22;43583;53.132;6.574;2024-03-02T10:17:18;13.20;99.90
57753;DHT22;43583;53.132;6.574;2024-03-02T10:19:44;13.00;99.90
57753;DHT22;43583;53.132;6.574;2024-03-02T10:22:10;12.70;99.90
57753;DHT22;43583;53.132;6.574;2024-03-02T10:24:41;12.50;99.90
57753;DHT22;43583;53.132;6.574;2024-03-02T10:27:08;12.30;99.90
57753;DHT22;43583;53.132;6.574;2024-03-02T10:29:37;12.10;99.90
57753;DHT22;43583;53.132;6.574;2024-03-02T10:32:04;12.10;99.90
57753;DHT22;43583;53.132;6.574;2024-03-02T10:34:32;11.90;99.90
57753;DHT22;43583;53.132;6.574;2024-03-02T10:36:59;11.80;99.90
57753;DHT22;43583;53.132;6.574;2024-03-02T10:39:25;11.70;99.90
57753;DHT22;43583;53.132;6.574;2024-03-02T10:41:52;11.60;99.90
57753;DHT22;43583;53.132;6.574;2024-03-02T10:44:19;11.70;99.90
57753;DHT22;43583;53.132;6.574;2024-03-02T10:46:46;11.70;99.90
57753;DHT22;43583;53.132;6.574;2024-03-02T10:49:13;11.80;99.90
57753;DHT22;43583;53.132;6.574;2024-03-02T10:51:38;11.90;99.90
57753;DHT22;43583;53.132;6.574;2024-03-02T10:54:05;11.90;99.90
57753;DHT22;43583;53.132;6.574;2024-03-02T10:56:53;11.90;99.90
57753;DHT22;43583;53.132;6.574;2024-03-02T10:59:34;11.90;99.90
57753;DHT22;43583;53.132;6.574;2024-03-02T11:02:02;12.10;99.90
57753;DHT22;43583;53.132;6.574;2024-03-02T11:04:31;12.30;99.90
57753;DHT22;43583;53.132;6.574;2024-03-02T11:07:07;12.40;99.90
57753;DHT22;43583;53.132;6.574;2024-03-02T11:09:41;12.50;99.90
57753;DHT22;43583;53.132;6.574;2024-03-02T11:12:13;12.50;99.90
57753;DHT22;43583;53.132;6.574;2024-03-02T11:14:49;12.60;99.90
57753;DHT22;43583;53.132;6.574;2024-03-02T11:17:19;12.70;99.90
57753;DHT22;43583;53.132;6.574;2024-03-02T11:19:48;12.60;99.90
57753;DHT22;43583;53.132;6.574;2024-03-02T11:22:15;12.60;99.90
57753;DHT22;43583;53.132;6.574;2024-03-02T11:24:51;12.70;99.90
57753;DHT22;43583;53.132;6.574;2024-03-02T11:33:34;12.60;99.90
57753;DHT22;43583;53.132;6.574;2024-03-02T11:36:19;12.50;99.90
57753;DHT22;43583;53.132;6.574;2024-03-02T11:39:18;12.50;99.90
57753;DHT22;43583;53.132;6.574;2024-03-02T11:48:39;12.70;99.90
57753;DHT22;43583;53.132;6.574;2024-03-02T11:52:04;12.60;99.90
57753;DHT22;43583;53.132;6.574;2024-03-02T11:54:58;12.60;99.90
57753;DHT22;43583;53.132;6.574;2024-03-02T12:16:57;12.70;99.90
57753;DHT22;43583;53.132;6.574;2024-03-02T12:20:17;12.70;99.90
57753;DHT22;43583;53.132;6.574;2024-03-02T12:22:43;12.80;99.90
57753;DHT22;43583;53.132;6.574;2024-03-02T12:25:09;12.80;99.90
57753;DHT22;43583;53.132;6.574;2024-03-02T12:27:35;12.90;99.90
57753;DHT22;43583;53.132;6.574;2024-03-02T12:30:01;13.00;99.90
57753;DHT22;43583;53.132;6.574;2024-03-02T12:32:30;13.10;99.90
57753;DHT22;43583;53.132;6.574;2024-03-02T12:34:59;13.20;99.90
57753;DHT22;43583;53.132;6.574;2024-03-02T12:37:26;13.30;99.90
57753;DHT22;43583;53.132;6.574;2024-03-02T12:39:53;13.40;99.90
57753;DHT22;43583;53.132;6.574;2024-03-02T12:42:23;13.40;99.90
57753;DHT22;43583;53.132;6.574;2024-03-02T12:44:49;13.50;99.90
57753;DHT22;43583;53.132;6.574;2024-03-02T12:47:17;13.50;99.90
57753;DHT22;43583;53.132;6.574;2024-03-02T12:49:43;13.60;99.90
57753;DHT22;43583;53.132;6.574;2024-03-02T12:52:14;13.60;99.90
57753;DHT22;43583;53.132;6.574;2024-03-02T12:54:40;13.60;99.90
57753;DHT22;43583;53.132;6.574;2024-03-02T12:57:17;13.40;99.90
57753;DHT22;43583;53.132;6.574;2024-03-02T12:59:47;13.20;99.90
57753;DHT22;43583;53.132;6.574;2024-03-02T13:06:32;13.00;99.90
57753;DHT22;43583;53.132;6.574;2024-03-02T13:12:24;13.20;99.90
57753;DHT22;43583;53.132;6.574;2024-03-02T13:15:03;13.10;99.90
57753;DHT22;43583;53.132;6.574;2024-03-02T13:52:06;13.10;99.90
57753;DHT22;43583;53.132;6.574;2024-03-02T13:59:49;12.80;99.90
57753;DHT22;43583;53.132;6.574;2024-03-02T15:21:44;12.60;99.90
57753;DHT22;43583;53.132;6.574;2024-03-02T15:25:36;12.50;99.90
57753;DHT22;43583;53.132;6.574;2024-03-02T15:29:22;12.30;99.90
57753;DHT22;43583;53.132;6.574;2024-03-02T15:31:54;12.20;99.90
57753;DHT22;43583;53.132;6.574;2024-03-02T15:34:19;12.30;99.90
57753;DHT22;43583;53.132;6.574;2024-03-02T15:36:48;12.30;99.90
57753;DHT22;43583;53.132;6.574;2024-03-02T15:39:14;12.20;99.90
57753;DHT22;43583;53.132;6.574;2024-03-02T15:41:40;12.20;99.90
57753;DHT22;43583;53.132;6.574;2024-03-02T15:44:08;12.20;99.90
57753;DHT22;43583;53.132;6.574;2024-03-02T15:46:34;12.10;99.90
57753;DHT22;43583;53.132;6.574;2024-03-02T15:49:00;12.10;99.90
57753;DHT22;43583;53.132;6.574;2024-03-02T15:51:26;12.00;99.90
57753;DHT22;43583;53.132;6.574;2024-03-02T15:53:52;12.00;99.90
57753;DHT22;43583;53.132;6.574;2024-03-02T15:56:18;11.90;99.90
57753;DHT22;43583;53.132;6.574;2024-03-02T15:58:44;11.80;99.90
57753;DHT22;43583;53.132;6.574;2024-03-02T16:01:11;11.70;99.90
57753;DHT22;43583;53.132;6.574;2024-03-02T16:03:37;11.70;99.90
57753;DHT22;43583;53.132;6.574;2024-03-02T16:06:03;11.60;99.90
57753;DHT22;43583;53.132;6.574;2024-03-02T16:08:29;11.60;99.90
57753;DHT22;43583;53.132;6.574;2024-03-02T16:10:55;11.60;99.90
57753;DHT22;43583;53.132;6.574;2024-03-02T16:13:22;11.60;99.90
57753;DHT22;43583;53.132;6.574;2024-03-02T16:15:47;11.60;99.90
57753;DHT22;43583;53.132;6.574;2024-03-02T16:18:13;11.50;99.90
57753;DHT22;43583;53.132;6.574;2024-03-02T16:20:39;11.50;99.90
57753;DHT22;43583;53.132;6.574;2024-03-02T16:23:04;11.50;99.90
57753;DHT22;43583;53.132;6.574;2024-03-02T16:25:31;11.50;99.90
57753;DHT22;43583;53.132;6.574;2024-03-02T16:27:57;11.40;99.90
57753;DHT22;43583;53.132;6.574;2024-03-02T16:30:23;11.40;99.90
57753;DHT22;43583;53.132;6.574;2024-03-02T16:32:50;11.30;99.90
57753;DHT22;43583;53.132;6.574;2024-03-02T16:35:16;11.30;99.90
57753;DHT22;43583;53.132;6.574;2024-03-02T16:37:42;11.30;99.90
57753;DHT22;43583;53.132;6.574;2024-03-02T16:40:08;11.20;99.90
57753;DHT22;43583;53.132;6.574;2024-03-02T16:42:35;11.20;99.90
57753;DHT22;43583;53.132;6.574;2024-03-02T16:45:01;11.10;99.90
57753;DHT22;43583;53.132;6.574;2024-03-02T16:47:27;11.10;99.90
57753;DHT22;43583;53.132;6.574;2024-03-02T16:49:52;11.10;99.90
57753;DHT22;43583;53.132;6.574;2024-03-02T16:52:18;11.10;99.90
57753;DHT22;43583;53.132;6.574;2024-03-02T16:54:47;11.10;99.90
57753;DHT22;43583;53.132;6.574;2024-03-02T16:57:13;11.10;99.90
57753;DHT22;43583;53.132;6.574;2024-03-02T16:59:43;11.00;99.90
57753;DHT22;43583;53.132;6.574;2024-03-02T17:02:09;10.90;99.90
57753;DHT22;43583;53.132;6.574;2024-03-02T17:04:37;10.80;99.90
57753;DHT22;43583;53.132;6.574;2024-03-02T17:07:04;10.70;99.90
57753;DHT22;43583;53.132;6.574;2024-03-02T17:09:29;10.70;99.90
57753;DHT22;43583;53.132;6.574;2024-03-02T17:11:55;10.60;99.90
57753;DHT22;43583;53.132;6.574;2024-03-02T17:14:21;10.60;99.90
57753;DHT22;43583;53.132;6.574;2024-03-02T17:16:47;10.40;99.90
57753;DHT22;43583;53.132;6.574;2024-03-02T17:19:15;10.30;99.90
57753;DHT22;43583;53.132;6.574;2024-03-02T17:21:41;10.20;99.90
57753;DHT22;43583;53.132;6.574;2024-03-02T17:24:09;10.20;99.90
57753;DHT22;43583;53.132;6.574;2024-03-02T17:26:35;10.20;99.90
57753;DHT22;43583;53.132;6.574;2024-03-02T17:29:00;10.20;99.90
57753;DHT22;43583;53.132;6.574;2024-03-02T17:31:26;10.10;99.90
57753;DHT22;43583;53.132;6.574;2024-03-02T17:33:55;10.20;99.90
57753;DHT22;43583;53.132;6.574;2024-03-02T17:36:21;10.20;99.90
57753;DHT22;43583;53.132;6.574;2024-03-02T17:38:46;10.10;99.90
57753;DHT22;43583;53.132;6.574;2024-03-02T17:41:15;10.00;99.90
57753;DHT22;43583;53.132;6.574;2024-03-02T17:43:41;10.00;99.90
57753;DHT22;43583;53.132;6.574;2024-03-02T17:46:07;10.00;99.90
57753;DHT22;43583;53.132;6.574;2024-03-02T17:48:32;9.90;99.90
57753;DHT22;43583;53.132;6.574;2024-03-02T17:51:00;9.90;99.90
57753;DHT22;43583;53.132;6.574;2024-03-02T17:53:26;9.90;99.90
57753;DHT22;43583;53.132;6.574;2024-03-02T17:55:51;9.90;99.90
57753;DHT22;43583;53.132;6.574;2024-03-02T17:58:20;9.80;99.90
57753;DHT22;43583;53.132;6.574;2024-03-02T18:00:46;9.80;99.90
57753;DHT22;43583;53.132;6.574;2024-03-02T18:03:11;9.80;99.90
57753;DHT22;43583;53.132;6.574;2024-03-02T18:05:37;9.80;99.90
57753;DHT22;43583;53.132;6.574;2024-03-02T18:08:03;9.90;99.90
57753;DHT22;43583;53.132;6.574;2024-03-02T18:10:29;9.90;99.90
57753;DHT22;43583;53.132;6.574;2024-03-02T18:12:58;9.90;99.90
57753;DHT22;43583;53.132;6.574;2024-03-02T18:15:24;10.00;99.90
57753;DHT22;43583;53.132;6.574;2024-03-02T18:17:49;10.00;99.90
57753;DHT22;43583;53.132;6.574;2024-03-02T18:20:15;10.00;99.90
57753;DHT22;43583;53.132;6.574;2024-03-02T18:22:41;9.90;99.90
57753;DHT22;43583;53.132;6.574;2024-03-02T18:25:07;9.90;99.90